createdAt,value
2018-04-23T00:00:16.893Z,68.50
2018-04-23T00:05:19.979Z,72.50
2018-04-23T00:10:23.074Z,79.60
2018-04-23T00:15:26.178Z,82.80
2018-04-23T00:20:29.667Z,83.30
2018-04-23T00:30:37.945Z,85.10
2018-04-23T00:35:41.799Z,85.60
2018-04-23T00:40:45.675Z,87.50
2018-04-23T00:45:49.534Z,88.70
2018-04-23T00:50:52.623Z,88.60
2018-04-23T00:55:55.729Z,90.00
2018-04-23T01:00:58.819Z,89.90
2018-04-23T01:06:02.671Z,90.20
2018-04-23T01:11:05.789Z,90.30
2018-04-23T01:16:09.282Z,90.30
2018-04-23T01:21:13.130Z,90.40
2018-04-23T01:26:17.150Z,90.70
2018-04-23T01:31:20.646Z,90.70
2018-04-23T01:41:28.930Z,91.00
2018-04-23T01:46:32.025Z,90.50
2018-04-23T01:51:35.502Z,90.30
2018-04-23T01:56:38.610Z,90.50
2018-04-23T02:01:41.699Z,90.30
2018-04-23T02:06:45.542Z,90.10
2018-04-23T02:11:49.042Z,90.10
2018-04-23T02:16:53.642Z,90.70
2018-04-23T02:21:57.510Z,91.00
2018-04-23T02:27:01.370Z,91.10
2018-04-23T02:32:04.463Z,91.50
2018-04-23T02:37:07.574Z,91.50
2018-04-23T02:42:11.811Z,91.70
2018-04-23T02:47:14.898Z,91.60
2018-04-23T02:52:18.770Z,91.40
2018-04-23T02:57:22.625Z,91.50
2018-04-23T03:02:26.843Z,91.10
2018-04-23T03:07:29.949Z,90.70
2018-04-23T03:12:33.433Z,90.70
2018-04-23T03:17:36.533Z,91.00
2018-04-23T03:22:40.009Z,90.50
2018-04-23T03:27:43.113Z,90.90
2018-04-23T03:32:47.347Z,90.80
2018-04-23T03:37:51.185Z,90.70
2018-04-23T03:42:54.670Z,90.80
2018-04-23T03:47:57.766Z,90.80
2018-04-23T03:53:01.266Z,91.00
2018-04-23T03:58:04.752Z,90.20
2018-04-23T04:03:08.227Z,90.10
2018-04-23T04:08:11.314Z,90.30
2018-04-23T04:13:32.167Z,90.50
2018-04-23T04:18:45.752Z,90.30
2018-04-23T04:23:49.316Z,90.50
2018-04-23T04:28:53.260Z,90.90
2018-04-23T04:33:56.452Z,90.20
2018-04-23T04:38:59.963Z,90.20
2018-04-23T04:44:03.051Z,90.00
2018-04-23T04:49:06.139Z,90.60
2018-04-23T04:54:10.155Z,91.00
2018-04-23T04:59:13.239Z,90.80
2018-04-23T05:04:16.327Z,90.70
2018-04-23T05:09:20.183Z,90.80
2018-04-23T05:14:23.271Z,91.20
2018-04-23T05:24:30.811Z,89.30
2018-04-23T05:29:34.663Z,89.50
2018-04-23T05:34:38.095Z,90.00
2018-04-23T05:39:42.325Z,88.70
2018-04-23T05:44:45.816Z,87.80
2018-04-23T05:49:49.322Z,87.90
2018-04-23T05:54:53.254Z,88.40
2018-04-23T06:10:05.235Z,83.20
2018-04-23T06:20:13.547Z,80.90
2018-04-23T06:25:16.625Z,77.00
2018-04-23T06:30:21.604Z,77.00
2018-04-23T06:35:24.688Z,74.00
2018-04-23T06:40:28.907Z,74.00
2018-04-23T06:45:32.755Z,71.40
2018-04-23T06:50:37.353Z,70.40
2018-04-23T06:55:42.430Z,68.50
2018-04-23T07:00:45.531Z,65.50
2018-04-23T07:10:54.563Z,66.00
2018-04-23T07:15:58.784Z,67.40
2018-04-23T07:21:01.871Z,66.50
2018-04-23T07:26:05.718Z,70.00
2018-04-23T07:31:08.803Z,69.80
2018-04-23T07:36:12.656Z,70.70
2018-04-23T07:41:15.735Z,69.30
2018-04-23T07:46:18.823Z,69.20
2018-04-23T07:56:27.239Z,66.60
2018-04-23T08:01:31.083Z,64.50
2018-04-23T08:11:38.994Z,61.80
2018-04-23T08:16:42.839Z,60.60
2018-04-23T08:21:45.927Z,60.60
2018-04-23T08:26:49.011Z,59.40
2018-04-23T08:31:53.278Z,59.20
2018-04-23T08:36:56.343Z,58.60
2018-04-23T08:42:00.195Z,58.10
2018-04-23T08:47:03.290Z,59.10
2018-04-23T08:52:07.139Z,57.40
2018-04-23T08:57:11.002Z,57.80
2018-04-23T09:02:14.096Z,56.90
2018-04-23T09:07:17.199Z,57.30
2018-04-23T09:12:20.282Z,55.20
2018-04-23T09:17:24.154Z,55.50
2018-04-23T09:22:27.248Z,55.30
2018-04-23T09:27:31.086Z,54.70
2018-04-23T09:32:34.567Z,57.40
2018-04-23T09:37:38.439Z,56.20
2018-04-23T09:47:45.963Z,54.70
2018-04-23T09:52:49.068Z,57.10
2018-04-23T10:02:56.583Z,58.60
2018-04-23T10:13:17.297Z,60.80
2018-04-23T10:18:21.440Z,61.90
2018-04-23T10:33:33.462Z,62.60
2018-04-23T10:38:36.658Z,64.00
2018-04-23T10:43:39.763Z,63.20
2018-04-23T10:48:42.883Z,63.50
2018-04-23T10:53:45.976Z,63.20
2018-04-23T10:58:49.834Z,62.90
2018-04-23T11:08:57.383Z,60.20
2018-04-23T11:19:05.302Z,61.00
2018-04-23T11:24:08.395Z,60.00
2018-04-23T11:29:11.508Z,61.20
2018-04-23T11:34:16.072Z,61.70
2018-04-23T11:39:20.795Z,59.00
2018-04-23T11:44:23.903Z,57.90
2018-04-23T11:49:27.828Z,57.60
2018-04-23T11:54:31.679Z,57.10
2018-04-23T11:59:34.852Z,57.90
2018-04-23T12:04:38.728Z,58.60
2018-04-23T12:09:42.302Z,56.50
2018-04-23T12:14:46.522Z,56.80
2018-04-23T12:19:49.607Z,56.00
2018-04-23T12:24:53.827Z,57.40
2018-04-23T12:29:56.976Z,57.60
2018-04-23T12:40:04.523Z,58.30
2018-04-23T12:45:08.004Z,57.40
2018-04-23T12:50:11.855Z,58.30
2018-04-23T12:55:14.954Z,57.80
2018-04-23T13:05:23.225Z,57.00
2018-04-23T13:15:30.717Z,56.60
2018-04-23T13:25:39.285Z,57.30
2018-04-23T13:45:56.270Z,53.50
2018-04-23T13:51:00.162Z,54.40
2018-04-23T14:06:12.515Z,55.10
2018-04-23T14:11:17.122Z,54.90
2018-04-23T14:16:20.200Z,54.40
2018-04-23T14:21:24.104Z,53.90
2018-04-23T14:26:27.967Z,54.00
2018-04-23T14:31:31.811Z,53.70
2018-04-23T14:36:34.915Z,54.00
2018-04-23T14:41:38.016Z,52.90
2018-04-23T14:46:42.261Z,54.00
2018-04-23T14:51:45.342Z,53.50
2018-04-23T14:56:48.634Z,52.90
2018-04-23T15:01:52.158Z,53.70
2018-04-23T15:06:56.006Z,52.80
2018-04-23T15:22:08.730Z,52.40
2018-04-23T15:27:11.810Z,54.30
2018-04-23T15:32:16.395Z,53.50
2018-04-23T15:37:19.495Z,52.70
2018-04-23T15:42:22.595Z,53.00
2018-04-23T15:47:26.444Z,53.20
2018-04-23T15:52:29.936Z,53.80
2018-04-23T15:57:33.495Z,53.50
2018-04-23T16:07:41.390Z,54.40
2018-04-23T16:12:45.618Z,54.30
2018-04-23T16:17:49.471Z,54.80
2018-04-23T16:22:53.334Z,54.80
2018-04-23T16:27:56.802Z,55.20
2018-04-23T16:32:59.887Z,54.10
2018-04-23T16:38:03.379Z,55.10
2018-04-23T16:43:07.618Z,55.10
2018-04-23T16:53:15.547Z,55.30
2018-04-23T16:58:19.868Z,54.30
2018-04-23T17:03:23.720Z,55.40
2018-04-23T17:08:27.210Z,56.30
2018-04-23T17:13:30.307Z,56.10
2018-04-23T17:18:33.778Z,55.90
2018-04-23T17:28:41.694Z,56.20
2018-04-23T17:33:44.778Z,56.50
2018-04-23T17:38:47.866Z,57.40
2018-04-23T17:43:50.977Z,57.30
2018-04-23T17:48:54.095Z,56.90
2018-04-23T17:53:57.994Z,56.70
2018-04-23T17:59:01.843Z,55.50
2018-04-23T18:04:04.933Z,56.00
2018-04-23T18:09:08.437Z,56.30
2018-04-23T18:14:13.104Z,56.90
2018-04-23T18:19:16.304Z,57.60
2018-04-23T18:24:19.462Z,58.20
2018-04-23T18:29:23.399Z,59.10
2018-04-23T18:34:26.533Z,59.10
2018-04-23T18:39:30.516Z,60.30
2018-04-23T18:44:34.184Z,60.20
2018-04-23T18:49:38.091Z,61.30
2018-04-23T18:54:41.232Z,61.20
2018-04-23T19:09:54.088Z,63.00
2018-04-23T19:14:57.191Z,63.40
2018-04-23T19:20:00.304Z,63.50
2018-04-23T19:25:03.792Z,63.50
2018-04-23T19:30:08.024Z,65.30
2018-04-23T19:35:12.458Z,65.00
2018-04-23T19:45:19.930Z,66.60
2018-04-23T19:55:28.238Z,68.10
2018-04-23T20:00:32.114Z,68.30
2018-04-23T20:05:35.603Z,68.20
2018-04-23T20:10:39.843Z,69.60
2018-04-23T20:15:44.083Z,69.80
2018-04-23T20:25:53.207Z,70.50
2018-04-23T20:30:56.291Z,71.30
2018-04-23T20:35:59.383Z,71.30
2018-04-23T20:41:02.486Z,71.50
2018-04-23T20:46:06.379Z,72.10
2018-04-23T20:56:14.303Z,73.60
2018-04-23T21:01:18.180Z,74.50
2018-04-23T21:06:22.035Z,76.00
2018-04-23T21:11:26.294Z,76.00
2018-04-23T21:16:29.816Z,76.80
2018-04-23T21:21:33.696Z,76.60
2018-04-23T21:26:36.793Z,75.80
2018-04-23T21:41:49.506Z,76.60
2018-04-23T21:46:52.604Z,75.70
2018-04-23T21:51:55.692Z,76.00
2018-04-23T21:57:00.347Z,76.30
2018-04-23T22:02:03.868Z,75.90
2018-04-23T22:07:07.699Z,76.30
2018-04-23T22:12:10.792Z,76.10
2018-04-23T22:22:18.751Z,74.80
2018-04-23T22:32:27.793Z,72.70
2018-04-23T22:37:32.255Z,72.50
2018-04-23T22:42:35.739Z,72.90
2018-04-23T22:47:39.232Z,73.30
2018-04-23T22:52:42.343Z,74.40
2018-04-23T22:57:45.459Z,74.60
2018-04-23T23:02:50.064Z,75.30
2018-04-23T23:07:53.556Z,75.20
2018-04-23T23:12:57.771Z,75.30
2018-04-23T23:18:00.858Z,74.80
2018-04-23T23:23:04.703Z,75.80
2018-04-23T23:28:08.572Z,75.60
2018-04-23T23:33:13.190Z,75.30
2018-04-23T23:38:17.428Z,75.60
2018-04-23T23:43:21.279Z,76.30
2018-04-23T23:48:26.067Z,76.40
2018-04-23T23:53:30.075Z,76.90
2018-04-23T23:58:34.451Z,77.40
